<?xml version="1.0" encoding="UTF-8" standalone="no" ?>
<gpx xmlns="http://www.topografix.com/GPX/1/1" xmlns:xsi="http://www.w3.org/2001/XMLSchema-instance" xsi:schemaLocation="http://www.topografix.com/GPX/1/1 http://www.topografix.com/GPX/1/1/gpx.xsd" version="1.1" creator="VisuGPX - https://www.visugpx.com">
  <metadata>
    <name>TSN 3 MENIL HUBERT S ORNE - CONDE S NOIREAU</name>
    <desc><![CDATA[FAIT]]></desc>
  </metadata>
  <trk>
    <name><![CDATA[T S N 3 MENIL HUBERT S ORNE - CONDE SUR NOIREAU-17891304]]></name>
    <trkseg>
      <trkpt lat="48.85587" lon="-0.41166">
        <ele>118</ele>
        <time>2023-11-02T14:33:43Z</time>
      </trkpt>
      <trkpt lat="48.85589" lon="-0.41172">
        <ele>118</ele>
        <time>2023-11-02T14:33:49Z</time>
      </trkpt>
      <trkpt lat="48.85593" lon="-0.41168">
        <ele>117</ele>
        <time>2023-11-02T14:33:55Z</time>
      </trkpt>
      <trkpt lat="48.85597" lon="-0.41175">
        <ele>117</ele>
        <time>2023-11-02T14:34:03Z</time>
      </trkpt>
      <trkpt lat="48.8559" lon="-0.41169">
        <ele>118</ele>
        <time>2023-11-02T14:34:14Z</time>
      </trkpt>
      <trkpt lat="48.85584" lon="-0.41169">
        <ele>118</ele>
        <time>2023-11-02T14:34:22Z</time>
      </trkpt>
      <trkpt lat="48.85575" lon="-0.41177">
        <ele>119</ele>
        <time>2023-11-02T14:34:36Z</time>
      </trkpt>
      <trkpt lat="48.85567" lon="-0.41196">
        <ele>120</ele>
        <time>2023-11-02T14:34:56Z</time>
      </trkpt>
      <trkpt lat="48.85567" lon="-0.41206">
        <ele>120</ele>
        <time>2023-11-02T14:35:05Z</time>
      </trkpt>
      <trkpt lat="48.85578" lon="-0.41216">
        <ele>120</ele>
        <time>2023-11-02T14:35:22Z</time>
      </trkpt>
      <trkpt lat="48.85599" lon="-0.41219">
        <ele>119</ele>
        <time>2023-11-02T14:35:50Z</time>
      </trkpt>
      <trkpt lat="48.85622" lon="-0.41228">
        <ele>118</ele>
        <time>2023-11-02T14:36:22Z</time>
      </trkpt>
      <trkpt lat="48.85639" lon="-0.41247">
        <ele>118</ele>
        <time>2023-11-02T14:36:50Z</time>
      </trkpt>
      <trkpt lat="48.85684" lon="-0.41275">
        <ele>118</ele>
        <time>2023-11-02T14:37:55Z</time>
      </trkpt>
      <trkpt lat="48.85706" lon="-0.41279">
        <ele>117</ele>
        <time>2023-11-02T14:38:24Z</time>
      </trkpt>
      <trkpt lat="48.85715" lon="-0.41287">
        <ele>117</ele>
        <time>2023-11-02T14:38:38Z</time>
      </trkpt>
      <trkpt lat="48.85759" lon="-0.41264">
        <ele>116</ele>
        <time>2023-11-02T14:39:40Z</time>
      </trkpt>
      <trkpt lat="48.85787" lon="-0.4126">
        <ele>115</ele>
        <time>2023-11-02T14:40:18Z</time>
      </trkpt>
      <trkpt lat="48.85799" lon="-0.41265">
        <ele>115</ele>
        <time>2023-11-02T14:40:34Z</time>
      </trkpt>
      <trkpt lat="48.85811" lon="-0.41278">
        <ele>115</ele>
        <time>2023-11-02T14:40:54Z</time>
      </trkpt>
      <trkpt lat="48.85839" lon="-0.41316">
        <ele>116</ele>
        <time>2023-11-02T14:41:44Z</time>
      </trkpt>
      <trkpt lat="48.85855" lon="-0.41346">
        <ele>116</ele>
        <time>2023-11-02T14:42:18Z</time>
      </trkpt>
      <trkpt lat="48.85874" lon="-0.41431">
        <ele>116</ele>
        <time>2023-11-02T14:43:37Z</time>
      </trkpt>
      <trkpt lat="48.8588" lon="-0.4152">
        <ele>119</ele>
        <time>2023-11-02T14:44:55Z</time>
      </trkpt>
      <trkpt lat="48.85888" lon="-0.41536">
        <ele>119</ele>
        <time>2023-11-02T14:45:13Z</time>
      </trkpt>
      <trkpt lat="48.85966" lon="-0.4159">
        <ele>120</ele>
        <time>2023-11-02T14:47:07Z</time>
      </trkpt>
      <trkpt lat="48.85988" lon="-0.41601">
        <ele>120</ele>
        <time>2023-11-02T14:47:38Z</time>
      </trkpt>
      <trkpt lat="48.86023" lon="-0.41634">
        <ele>120</ele>
        <time>2023-11-02T14:48:33Z</time>
      </trkpt>
      <trkpt lat="48.86037" lon="-0.41663">
        <ele>120</ele>
        <time>2023-11-02T14:49:05Z</time>
      </trkpt>
      <trkpt lat="48.8609" lon="-0.41725">
        <ele>117</ele>
        <time>2023-11-02T14:50:34Z</time>
      </trkpt>
      <trkpt lat="48.86237" lon="-0.41918">
        <ele>107</ele>
        <time>2023-11-02T14:54:53Z</time>
      </trkpt>
      <trkpt lat="48.86249" lon="-0.41942">
        <ele>106</ele>
        <time>2023-11-02T14:55:20Z</time>
      </trkpt>
      <trkpt lat="48.86261" lon="-0.41998">
        <ele>103</ele>
        <time>2023-11-02T14:56:11Z</time>
      </trkpt>
      <trkpt lat="48.86272" lon="-0.42029">
        <ele>101</ele>
        <time>2023-11-02T14:56:42Z</time>
      </trkpt>
      <trkpt lat="48.86274" lon="-0.42085">
        <ele>97</ele>
        <time>2023-11-02T14:57:32Z</time>
      </trkpt>
      <trkpt lat="48.86282" lon="-0.42112">
        <ele>95</ele>
        <time>2023-11-02T14:57:58Z</time>
      </trkpt>
      <trkpt lat="48.86292" lon="-0.42182">
        <ele>89</ele>
        <time>2023-11-02T14:59:01Z</time>
      </trkpt>
      <trkpt lat="48.863" lon="-0.42202">
        <ele>87</ele>
        <time>2023-11-02T14:59:21Z</time>
      </trkpt>
      <trkpt lat="48.86325" lon="-0.42241">
        <ele>82</ele>
        <time>2023-11-02T15:00:09Z</time>
      </trkpt>
      <trkpt lat="48.86334" lon="-0.42294">
        <ele>76</ele>
        <time>2023-11-02T15:00:57Z</time>
      </trkpt>
      <trkpt lat="48.86332" lon="-0.42332">
        <ele>73</ele>
        <time>2023-11-02T15:01:30Z</time>
      </trkpt>
      <trkpt lat="48.86347" lon="-0.42363">
        <ele>71</ele>
        <time>2023-11-02T15:02:04Z</time>
      </trkpt>
      <trkpt lat="48.86378" lon="-0.42406">
        <ele>68</ele>
        <time>2023-11-02T15:03:00Z</time>
      </trkpt>
      <trkpt lat="48.86393" lon="-0.42421">
        <ele>67</ele>
        <time>2023-11-02T15:03:24Z</time>
      </trkpt>
      <trkpt lat="48.86421" lon="-0.42437">
        <ele>66</ele>
        <time>2023-11-02T15:04:04Z</time>
      </trkpt>
      <trkpt lat="48.86429" lon="-0.42451">
        <ele>66</ele>
        <time>2023-11-02T15:04:20Z</time>
      </trkpt>
      <trkpt lat="48.86424" lon="-0.42466">
        <ele>67</ele>
        <time>2023-11-02T15:04:35Z</time>
      </trkpt>
      <trkpt lat="48.86396" lon="-0.425">
        <ele>70</ele>
        <time>2023-11-02T15:05:23Z</time>
      </trkpt>
      <trkpt lat="48.86373" lon="-0.42519">
        <ele>72</ele>
        <time>2023-11-02T15:05:58Z</time>
      </trkpt>
      <trkpt lat="48.8633" lon="-0.42531">
        <ele>75</ele>
        <time>2023-11-02T15:06:56Z</time>
      </trkpt>
      <trkpt lat="48.86314" lon="-0.42548">
        <ele>76</ele>
        <time>2023-11-02T15:07:22Z</time>
      </trkpt>
      <trkpt lat="48.863" lon="-0.42571">
        <ele>78</ele>
        <time>2023-11-02T15:07:50Z</time>
      </trkpt>
      <trkpt lat="48.86267" lon="-0.42605">
        <ele>81</ele>
        <time>2023-11-02T15:08:43Z</time>
      </trkpt>
      <trkpt lat="48.86249" lon="-0.42636">
        <ele>82</ele>
        <time>2023-11-02T15:09:19Z</time>
      </trkpt>
      <trkpt lat="48.86236" lon="-0.42647">
        <ele>83</ele>
        <time>2023-11-02T15:09:39Z</time>
      </trkpt>
      <trkpt lat="48.86224" lon="-0.4265">
        <ele>84</ele>
        <time>2023-11-02T15:09:55Z</time>
      </trkpt>
      <trkpt lat="48.86201" lon="-0.42664">
        <ele>87</ele>
        <time>2023-11-02T15:10:28Z</time>
      </trkpt>
      <trkpt lat="48.86184" lon="-0.42685">
        <ele>88</ele>
        <time>2023-11-02T15:10:58Z</time>
      </trkpt>
      <trkpt lat="48.86153" lon="-0.42707">
        <ele>91</ele>
        <time>2023-11-02T15:11:43Z</time>
      </trkpt>
      <trkpt lat="48.86128" lon="-0.42739">
        <ele>94</ele>
        <time>2023-11-02T15:12:27Z</time>
      </trkpt>
      <trkpt lat="48.86116" lon="-0.42768">
        <ele>96</ele>
        <time>2023-11-02T15:12:57Z</time>
      </trkpt>
      <trkpt lat="48.86115" lon="-0.42807">
        <ele>98</ele>
        <time>2023-11-02T15:13:31Z</time>
      </trkpt>
      <trkpt lat="48.86086" lon="-0.42937">
        <ele>105</ele>
        <time>2023-11-02T15:15:32Z</time>
      </trkpt>
      <trkpt lat="48.86029" lon="-0.43115">
        <ele>117</ele>
        <time>2023-11-02T15:18:26Z</time>
      </trkpt>
      <trkpt lat="48.86025" lon="-0.43132">
        <ele>118</ele>
        <time>2023-11-02T15:18:41Z</time>
      </trkpt>
      <trkpt lat="48.86028" lon="-0.43136">
        <ele>118</ele>
        <time>2023-11-02T15:18:47Z</time>
      </trkpt>
      <trkpt lat="48.86024" lon="-0.43134">
        <ele>119</ele>
        <time>2023-11-02T15:18:52Z</time>
      </trkpt>
      <trkpt lat="48.86012" lon="-0.4316">
        <ele>121</ele>
        <time>2023-11-02T15:19:20Z</time>
      </trkpt>
      <trkpt lat="48.85992" lon="-0.43186">
        <ele>123</ele>
        <time>2023-11-02T15:19:55Z</time>
      </trkpt>
      <trkpt lat="48.85957" lon="-0.43246">
        <ele>128</ele>
        <time>2023-11-02T15:21:06Z</time>
      </trkpt>
      <trkpt lat="48.85945" lon="-0.43256">
        <ele>129</ele>
        <time>2023-11-02T15:21:24Z</time>
      </trkpt>
      <trkpt lat="48.85945" lon="-0.43267">
        <ele>129</ele>
        <time>2023-11-02T15:21:34Z</time>
      </trkpt>
      <trkpt lat="48.85936" lon="-0.43289">
        <ele>129</ele>
        <time>2023-11-02T15:21:56Z</time>
      </trkpt>
      <trkpt lat="48.85887" lon="-0.43348">
        <ele>133</ele>
        <time>2023-11-02T15:23:20Z</time>
      </trkpt>
      <trkpt lat="48.85878" lon="-0.43368">
        <ele>134</ele>
        <time>2023-11-02T15:23:41Z</time>
      </trkpt>
      <trkpt lat="48.85869" lon="-0.43374">
        <ele>135</ele>
        <time>2023-11-02T15:23:54Z</time>
      </trkpt>
      <trkpt lat="48.85862" lon="-0.4339">
        <ele>136</ele>
        <time>2023-11-02T15:24:11Z</time>
      </trkpt>
      <trkpt lat="48.85845" lon="-0.43408">
        <ele>138</ele>
        <time>2023-11-02T15:24:39Z</time>
      </trkpt>
      <trkpt lat="48.85823" lon="-0.43442">
        <ele>139</ele>
        <time>2023-11-02T15:25:21Z</time>
      </trkpt>
      <trkpt lat="48.85772" lon="-0.43546">
        <ele>144</ele>
        <time>2023-11-02T15:27:15Z</time>
      </trkpt>
      <trkpt lat="48.85747" lon="-0.43578">
        <ele>149</ele>
        <time>2023-11-02T15:27:58Z</time>
      </trkpt>
      <trkpt lat="48.85743" lon="-0.43603">
        <ele>150</ele>
        <time>2023-11-02T15:28:21Z</time>
      </trkpt>
      <trkpt lat="48.85727" lon="-0.4365">
        <ele>153</ele>
        <time>2023-11-02T15:29:07Z</time>
      </trkpt>
      <trkpt lat="48.85722" lon="-0.43672">
        <ele>155</ele>
        <time>2023-11-02T15:29:28Z</time>
      </trkpt>
      <trkpt lat="48.85729" lon="-0.43715">
        <ele>156</ele>
        <time>2023-11-02T15:30:06Z</time>
      </trkpt>
      <trkpt lat="48.85741" lon="-0.43757">
        <ele>158</ele>
        <time>2023-11-02T15:30:47Z</time>
      </trkpt>
      <trkpt lat="48.85753" lon="-0.43833">
        <ele>163</ele>
        <time>2023-11-02T15:31:55Z</time>
      </trkpt>
      <trkpt lat="48.85768" lon="-0.43872">
        <ele>164</ele>
        <time>2023-11-02T15:32:35Z</time>
      </trkpt>
      <trkpt lat="48.85782" lon="-0.43941">
        <ele>167</ele>
        <time>2023-11-02T15:33:38Z</time>
      </trkpt>
      <trkpt lat="48.85785" lon="-0.44001">
        <ele>169</ele>
        <time>2023-11-02T15:34:31Z</time>
      </trkpt>
      <trkpt lat="48.85799" lon="-0.44115">
        <ele>169</ele>
        <time>2023-11-02T15:36:13Z</time>
      </trkpt>
      <trkpt lat="48.85819" lon="-0.44125">
        <ele>168</ele>
        <time>2023-11-02T15:36:41Z</time>
      </trkpt>
      <trkpt lat="48.8584" lon="-0.44124">
        <ele>166</ele>
        <time>2023-11-02T15:37:09Z</time>
      </trkpt>
      <trkpt lat="48.85853" lon="-0.44128">
        <ele>164</ele>
        <time>2023-11-02T15:37:27Z</time>
      </trkpt>
      <trkpt lat="48.85871" lon="-0.44143">
        <ele>161</ele>
        <time>2023-11-02T15:37:54Z</time>
      </trkpt>
      <trkpt lat="48.85863" lon="-0.44194">
        <ele>164</ele>
        <time>2023-11-02T15:38:40Z</time>
      </trkpt>
      <trkpt lat="48.85891" lon="-0.44252">
        <ele>164</ele>
        <time>2023-11-02T15:39:43Z</time>
      </trkpt>
      <trkpt lat="48.85908" lon="-0.44309">
        <ele>165</ele>
        <time>2023-11-02T15:40:38Z</time>
      </trkpt>
      <trkpt lat="48.85907" lon="-0.44342">
        <ele>166</ele>
        <time>2023-11-02T15:41:07Z</time>
      </trkpt>
      <trkpt lat="48.85894" lon="-0.44379">
        <ele>167</ele>
        <time>2023-11-02T15:41:44Z</time>
      </trkpt>
      <trkpt lat="48.85902" lon="-0.44414">
        <ele>167</ele>
        <time>2023-11-02T15:42:17Z</time>
      </trkpt>
      <trkpt lat="48.85898" lon="-0.44553">
        <ele>164</ele>
        <time>2023-11-02T15:44:19Z</time>
      </trkpt>
      <trkpt lat="48.85892" lon="-0.44602">
        <ele>162</ele>
        <time>2023-11-02T15:45:03Z</time>
      </trkpt>
      <trkpt lat="48.85896" lon="-0.44672">
        <ele>160</ele>
        <time>2023-11-02T15:46:04Z</time>
      </trkpt>
      <trkpt lat="48.85891" lon="-0.44708">
        <ele>159</ele>
        <time>2023-11-02T15:46:37Z</time>
      </trkpt>
      <trkpt lat="48.85856" lon="-0.44845">
        <ele>153</ele>
        <time>2023-11-02T15:48:46Z</time>
      </trkpt>
      <trkpt lat="48.85841" lon="-0.44881">
        <ele>152</ele>
        <time>2023-11-02T15:49:23Z</time>
      </trkpt>
      <trkpt lat="48.8582" lon="-0.44966">
        <ele>150</ele>
        <time>2023-11-02T15:50:43Z</time>
      </trkpt>
      <trkpt lat="48.85809" lon="-0.44986">
        <ele>150</ele>
        <time>2023-11-02T15:51:06Z</time>
      </trkpt>
      <trkpt lat="48.85799" lon="-0.45021">
        <ele>148</ele>
        <time>2023-11-02T15:51:39Z</time>
      </trkpt>
      <trkpt lat="48.85772" lon="-0.45067">
        <ele>146</ele>
        <time>2023-11-02T15:52:33Z</time>
      </trkpt>
      <trkpt lat="48.85746" lon="-0.45089">
        <ele>146</ele>
        <time>2023-11-02T15:53:13Z</time>
      </trkpt>
      <trkpt lat="48.85721" lon="-0.4512">
        <ele>146</ele>
        <time>2023-11-02T15:53:56Z</time>
      </trkpt>
      <trkpt lat="48.85683" lon="-0.45151">
        <ele>146</ele>
        <time>2023-11-02T15:54:54Z</time>
      </trkpt>
      <trkpt lat="48.8568" lon="-0.45161">
        <ele>145</ele>
        <time>2023-11-02T15:55:03Z</time>
      </trkpt>
      <trkpt lat="48.85676" lon="-0.45197">
        <ele>147</ele>
        <time>2023-11-02T15:55:35Z</time>
      </trkpt>
      <trkpt lat="48.85687" lon="-0.45201">
        <ele>148</ele>
        <time>2023-11-02T15:55:50Z</time>
      </trkpt>
      <trkpt lat="48.85681" lon="-0.45197">
        <ele>147</ele>
        <time>2023-11-02T15:55:59Z</time>
      </trkpt>
      <trkpt lat="48.85701" lon="-0.45193">
        <ele>146</ele>
        <time>2023-11-02T15:56:26Z</time>
      </trkpt>
      <trkpt lat="48.85744" lon="-0.45212">
        <ele>148</ele>
        <time>2023-11-02T15:57:26Z</time>
      </trkpt>
      <trkpt lat="48.85784" lon="-0.45255">
        <ele>151</ele>
        <time>2023-11-02T15:58:31Z</time>
      </trkpt>
      <trkpt lat="48.85799" lon="-0.45285">
        <ele>152</ele>
        <time>2023-11-02T15:59:04Z</time>
      </trkpt>
      <trkpt lat="48.85794" lon="-0.45289">
        <ele>153</ele>
        <time>2023-11-02T15:59:12Z</time>
      </trkpt>
      <trkpt lat="48.85751" lon="-0.45388">
        <ele>161</ele>
        <time>2023-11-02T16:00:56Z</time>
      </trkpt>
      <trkpt lat="48.85729" lon="-0.45423">
        <ele>162</ele>
        <time>2023-11-02T16:01:39Z</time>
      </trkpt>
      <trkpt lat="48.85717" lon="-0.4545">
        <ele>161</ele>
        <time>2023-11-02T16:02:07Z</time>
      </trkpt>
      <trkpt lat="48.85711" lon="-0.45486">
        <ele>160</ele>
        <time>2023-11-02T16:02:40Z</time>
      </trkpt>
      <trkpt lat="48.85695" lon="-0.45508">
        <ele>162</ele>
        <time>2023-11-02T16:03:09Z</time>
      </trkpt>
      <trkpt lat="48.85685" lon="-0.45536">
        <ele>164</ele>
        <time>2023-11-02T16:03:37Z</time>
      </trkpt>
      <trkpt lat="48.85672" lon="-0.45557">
        <ele>166</ele>
        <time>2023-11-02T16:04:02Z</time>
      </trkpt>
      <trkpt lat="48.85637" lon="-0.45648">
        <ele>171</ele>
        <time>2023-11-02T16:05:34Z</time>
      </trkpt>
      <trkpt lat="48.85633" lon="-0.45669">
        <ele>172</ele>
        <time>2023-11-02T16:05:54Z</time>
      </trkpt>
      <trkpt lat="48.85636" lon="-0.45668">
        <ele>172</ele>
        <time>2023-11-02T16:05:58Z</time>
      </trkpt>
      <trkpt lat="48.85635" lon="-0.45665">
        <ele>172</ele>
        <time>2023-11-02T16:06:01Z</time>
      </trkpt>
      <trkpt lat="48.85623" lon="-0.45703">
        <ele>175</ele>
        <time>2023-11-02T16:06:38Z</time>
      </trkpt>
      <trkpt lat="48.85627" lon="-0.45772">
        <ele>177</ele>
        <time>2023-11-02T16:07:38Z</time>
      </trkpt>
      <trkpt lat="48.85632" lon="-0.45791">
        <ele>176</ele>
        <time>2023-11-02T16:07:56Z</time>
      </trkpt>
      <trkpt lat="48.8563" lon="-0.458">
        <ele>177</ele>
        <time>2023-11-02T16:08:05Z</time>
      </trkpt>
      <trkpt lat="48.85645" lon="-0.45856">
        <ele>175</ele>
        <time>2023-11-02T16:08:58Z</time>
      </trkpt>
      <trkpt lat="48.85634" lon="-0.45933">
        <ele>175</ele>
        <time>2023-11-02T16:10:07Z</time>
      </trkpt>
      <trkpt lat="48.85619" lon="-0.45959">
        <ele>176</ele>
        <time>2023-11-02T16:10:37Z</time>
      </trkpt>
      <trkpt lat="48.85563" lon="-0.46019">
        <ele>184</ele>
        <time>2023-11-02T16:12:09Z</time>
      </trkpt>
      <trkpt lat="48.85556" lon="-0.46029">
        <ele>185</ele>
        <time>2023-11-02T16:12:22Z</time>
      </trkpt>
      <trkpt lat="48.85553" lon="-0.46043">
        <ele>186</ele>
        <time>2023-11-02T16:12:35Z</time>
      </trkpt>
      <trkpt lat="48.85567" lon="-0.46109">
        <ele>183</ele>
        <time>2023-11-02T16:13:35Z</time>
      </trkpt>
      <trkpt lat="48.8559" lon="-0.46155">
        <ele>180</ele>
        <time>2023-11-02T16:14:26Z</time>
      </trkpt>
      <trkpt lat="48.85593" lon="-0.46192">
        <ele>183</ele>
        <time>2023-11-02T16:14:59Z</time>
      </trkpt>
      <trkpt lat="48.85599" lon="-0.46213">
        <ele>185</ele>
        <time>2023-11-02T16:15:19Z</time>
      </trkpt>
      <trkpt lat="48.85635" lon="-0.46226">
        <ele>182</ele>
        <time>2023-11-02T16:16:08Z</time>
      </trkpt>
      <trkpt lat="48.85657" lon="-0.46251">
        <ele>181</ele>
        <time>2023-11-02T16:16:45Z</time>
      </trkpt>
      <trkpt lat="48.8567" lon="-0.46252">
        <ele>180</ele>
        <time>2023-11-02T16:17:02Z</time>
      </trkpt>
      <trkpt lat="48.85691" lon="-0.4624">
        <ele>177</ele>
        <time>2023-11-02T16:17:32Z</time>
      </trkpt>
      <trkpt lat="48.85731" lon="-0.46238">
        <ele>174</ele>
        <time>2023-11-02T16:18:26Z</time>
      </trkpt>
      <trkpt lat="48.85747" lon="-0.46224">
        <ele>173</ele>
        <time>2023-11-02T16:18:50Z</time>
      </trkpt>
      <trkpt lat="48.8577" lon="-0.46214">
        <ele>171</ele>
        <time>2023-11-02T16:19:22Z</time>
      </trkpt>
      <trkpt lat="48.85791" lon="-0.46198">
        <ele>170</ele>
        <time>2023-11-02T16:19:54Z</time>
      </trkpt>
      <trkpt lat="48.85796" lon="-0.46182">
        <ele>169</ele>
        <time>2023-11-02T16:20:09Z</time>
      </trkpt>
      <trkpt lat="48.85814" lon="-0.46164">
        <ele>169</ele>
        <time>2023-11-02T16:20:38Z</time>
      </trkpt>
      <trkpt lat="48.85854" lon="-0.46143">
        <ele>166</ele>
        <time>2023-11-02T16:21:34Z</time>
      </trkpt>
      <trkpt lat="48.85904" lon="-0.46108">
        <ele>162</ele>
        <time>2023-11-02T16:22:48Z</time>
      </trkpt>
      <trkpt lat="48.85923" lon="-0.461">
        <ele>161</ele>
        <time>2023-11-02T16:23:14Z</time>
      </trkpt>
      <trkpt lat="48.85948" lon="-0.46116">
        <ele>158</ele>
        <time>2023-11-02T16:23:50Z</time>
      </trkpt>
      <trkpt lat="48.85986" lon="-0.46159">
        <ele>153</ele>
        <time>2023-11-02T16:24:54Z</time>
      </trkpt>
      <trkpt lat="48.86001" lon="-0.4617">
        <ele>151</ele>
        <time>2023-11-02T16:25:16Z</time>
      </trkpt>
      <trkpt lat="48.86004" lon="-0.46183">
        <ele>150</ele>
        <time>2023-11-02T16:25:28Z</time>
      </trkpt>
      <trkpt lat="48.86003" lon="-0.46173">
        <ele>151</ele>
        <time>2023-11-02T16:25:37Z</time>
      </trkpt>
      <trkpt lat="48.86018" lon="-0.46194">
        <ele>146</ele>
        <time>2023-11-02T16:26:04Z</time>
      </trkpt>
      <trkpt lat="48.86029" lon="-0.46202">
        <ele>143</ele>
        <time>2023-11-02T16:26:20Z</time>
      </trkpt>
      <trkpt lat="48.86047" lon="-0.46197">
        <ele>140</ele>
        <time>2023-11-02T16:26:45Z</time>
      </trkpt>
      <trkpt lat="48.86071" lon="-0.46177">
        <ele>137</ele>
        <time>2023-11-02T16:27:21Z</time>
      </trkpt>
      <trkpt lat="48.86088" lon="-0.46175">
        <ele>135</ele>
        <time>2023-11-02T16:27:44Z</time>
      </trkpt>
      <trkpt lat="48.8609" lon="-0.46161">
        <ele>135</ele>
        <time>2023-11-02T16:27:57Z</time>
      </trkpt>
      <trkpt lat="48.86119" lon="-0.46186">
        <ele>129</ele>
        <time>2023-11-02T16:28:41Z</time>
      </trkpt>
      <trkpt lat="48.86149" lon="-0.46197">
        <ele>123</ele>
        <time>2023-11-02T16:29:22Z</time>
      </trkpt>
      <trkpt lat="48.86154" lon="-0.46214">
        <ele>121</ele>
        <time>2023-11-02T16:29:39Z</time>
      </trkpt>
      <trkpt lat="48.86152" lon="-0.4624">
        <ele>120</ele>
        <time>2023-11-02T16:30:02Z</time>
      </trkpt>
      <trkpt lat="48.86139" lon="-0.46277">
        <ele>119</ele>
        <time>2023-11-02T16:30:38Z</time>
      </trkpt>
      <trkpt lat="48.86144" lon="-0.46282">
        <ele>117</ele>
        <time>2023-11-02T16:30:46Z</time>
      </trkpt>
      <trkpt lat="48.86177" lon="-0.46291">
        <ele>113</ele>
        <time>2023-11-02T16:31:31Z</time>
      </trkpt>
      <trkpt lat="48.86198" lon="-0.46316">
        <ele>109</ele>
        <time>2023-11-02T16:32:07Z</time>
      </trkpt>
      <trkpt lat="48.86192" lon="-0.4634">
        <ele>107</ele>
        <time>2023-11-02T16:32:29Z</time>
      </trkpt>
      <trkpt lat="48.86157" lon="-0.4642">
        <ele>103</ele>
        <time>2023-11-02T16:33:54Z</time>
      </trkpt>
      <trkpt lat="48.8612" lon="-0.4645">
        <ele>104</ele>
        <time>2023-11-02T16:34:50Z</time>
      </trkpt>
      <trkpt lat="48.86115" lon="-0.46478">
        <ele>101</ele>
        <time>2023-11-02T16:35:15Z</time>
      </trkpt>
      <trkpt lat="48.86093" lon="-0.46506">
        <ele>99</ele>
        <time>2023-11-02T16:35:53Z</time>
      </trkpt>
      <trkpt lat="48.861" lon="-0.46661">
        <ele>97</ele>
        <time>2023-11-02T16:38:10Z</time>
      </trkpt>
      <trkpt lat="48.86097" lon="-0.4671">
        <ele>97</ele>
        <time>2023-11-02T16:38:53Z</time>
      </trkpt>
      <trkpt lat="48.86087" lon="-0.46734">
        <ele>98</ele>
        <time>2023-11-02T16:39:18Z</time>
      </trkpt>
      <trkpt lat="48.86081" lon="-0.46819">
        <ele>94</ele>
        <time>2023-11-02T16:40:33Z</time>
      </trkpt>
      <trkpt lat="48.86115" lon="-0.46911">
        <ele>87</ele>
        <time>2023-11-02T16:42:06Z</time>
      </trkpt>
      <trkpt lat="48.86129" lon="-0.46931">
        <ele>86</ele>
        <time>2023-11-02T16:42:31Z</time>
      </trkpt>
      <trkpt lat="48.86187" lon="-0.46979">
        <ele>81</ele>
        <time>2023-11-02T16:43:59Z</time>
      </trkpt>
      <trkpt lat="48.86195" lon="-0.4699">
        <ele>80</ele>
        <time>2023-11-02T16:44:14Z</time>
      </trkpt>
      <trkpt lat="48.86196" lon="-0.47016">
        <ele>79</ele>
        <time>2023-11-02T16:44:37Z</time>
      </trkpt>
      <trkpt lat="48.86193" lon="-0.47031">
        <ele>78</ele>
        <time>2023-11-02T16:44:50Z</time>
      </trkpt>
      <trkpt lat="48.86182" lon="-0.47047">
        <ele>78</ele>
        <time>2023-11-02T16:45:11Z</time>
      </trkpt>
      <trkpt lat="48.86154" lon="-0.47067">
        <ele>78</ele>
        <time>2023-11-02T16:45:52Z</time>
      </trkpt>
      <trkpt lat="48.86134" lon="-0.4709">
        <ele>78</ele>
        <time>2023-11-02T16:46:25Z</time>
      </trkpt>
      <trkpt lat="48.86129" lon="-0.47079">
        <ele>79</ele>
        <time>2023-11-02T16:46:37Z</time>
      </trkpt>
      <trkpt lat="48.86103" lon="-0.47067">
        <ele>80</ele>
        <time>2023-11-02T16:47:13Z</time>
      </trkpt>
      <trkpt lat="48.86092" lon="-0.4705">
        <ele>81</ele>
        <time>2023-11-02T16:47:34Z</time>
      </trkpt>
      <trkpt lat="48.86087" lon="-0.4705">
        <ele>81</ele>
        <time>2023-11-02T16:47:41Z</time>
      </trkpt>
      <trkpt lat="48.86078" lon="-0.4706">
        <ele>82</ele>
        <time>2023-11-02T16:47:56Z</time>
      </trkpt>
      <trkpt lat="48.86051" lon="-0.47067">
        <ele>85</ele>
        <time>2023-11-02T16:48:32Z</time>
      </trkpt>
      <trkpt lat="48.86047" lon="-0.47059">
        <ele>85</ele>
        <time>2023-11-02T16:48:41Z</time>
      </trkpt>
      <trkpt lat="48.86052" lon="-0.47052">
        <ele>85</ele>
        <time>2023-11-02T16:48:50Z</time>
      </trkpt>
      <trkpt lat="48.86043" lon="-0.47058">
        <ele>86</ele>
        <time>2023-11-02T16:49:03Z</time>
      </trkpt>
      <trkpt lat="48.86042" lon="-0.47048">
        <ele>86</ele>
        <time>2023-11-02T16:49:12Z</time>
      </trkpt>
      <trkpt lat="48.8604" lon="-0.47054">
        <ele>86</ele>
        <time>2023-11-02T16:49:18Z</time>
      </trkpt>
      <trkpt lat="48.86007" lon="-0.47074">
        <ele>90</ele>
        <time>2023-11-02T16:50:06Z</time>
      </trkpt>
      <trkpt lat="48.85987" lon="-0.47093">
        <ele>93</ele>
        <time>2023-11-02T16:50:37Z</time>
      </trkpt>
      <trkpt lat="48.85956" lon="-0.471">
        <ele>101</ele>
        <time>2023-11-02T16:51:19Z</time>
      </trkpt>
      <trkpt lat="48.85957" lon="-0.47104">
        <ele>100</ele>
        <time>2023-11-02T16:51:23Z</time>
      </trkpt>
      <trkpt lat="48.85948" lon="-0.47113">
        <ele>102</ele>
        <time>2023-11-02T16:51:37Z</time>
      </trkpt>
      <trkpt lat="48.85918" lon="-0.47131">
        <ele>111</ele>
        <time>2023-11-02T16:52:20Z</time>
      </trkpt>
      <trkpt lat="48.85917" lon="-0.47135">
        <ele>111</ele>
        <time>2023-11-02T16:52:24Z</time>
      </trkpt>
      <trkpt lat="48.85912" lon="-0.47135">
        <ele>112</ele>
        <time>2023-11-02T16:52:31Z</time>
      </trkpt>
      <trkpt lat="48.85883" lon="-0.47164">
        <ele>119</ele>
        <time>2023-11-02T16:53:17Z</time>
      </trkpt>
      <trkpt lat="48.85866" lon="-0.47173">
        <ele>122</ele>
        <time>2023-11-02T16:53:41Z</time>
      </trkpt>
      <trkpt lat="48.85852" lon="-0.4719">
        <ele>124</ele>
        <time>2023-11-02T16:54:05Z</time>
      </trkpt>
      <trkpt lat="48.85832" lon="-0.47183">
        <ele>129</ele>
        <time>2023-11-02T16:54:32Z</time>
      </trkpt>
      <trkpt lat="48.85816" lon="-0.47198">
        <ele>132</ele>
        <time>2023-11-02T16:54:57Z</time>
      </trkpt>
      <trkpt lat="48.85811" lon="-0.47209">
        <ele>133</ele>
        <time>2023-11-02T16:55:09Z</time>
      </trkpt>
      <trkpt lat="48.85783" lon="-0.47217">
        <ele>139</ele>
        <time>2023-11-02T16:55:47Z</time>
      </trkpt>
      <trkpt lat="48.85781" lon="-0.47224">
        <ele>140</ele>
        <time>2023-11-02T16:55:54Z</time>
      </trkpt>
      <trkpt lat="48.85762" lon="-0.47236">
        <ele>145</ele>
        <time>2023-11-02T16:56:21Z</time>
      </trkpt>
      <trkpt lat="48.85757" lon="-0.47248">
        <ele>147</ele>
        <time>2023-11-02T16:56:34Z</time>
      </trkpt>
      <trkpt lat="48.85723" lon="-0.47271">
        <ele>158</ele>
        <time>2023-11-02T16:57:23Z</time>
      </trkpt>
      <trkpt lat="48.85706" lon="-0.47292">
        <ele>164</ele>
        <time>2023-11-02T16:57:53Z</time>
      </trkpt>
      <trkpt lat="48.85683" lon="-0.47304">
        <ele>172</ele>
        <time>2023-11-02T16:58:25Z</time>
      </trkpt>
      <trkpt lat="48.85664" lon="-0.47329">
        <ele>180</ele>
        <time>2023-11-02T16:58:59Z</time>
      </trkpt>
      <trkpt lat="48.85651" lon="-0.47338">
        <ele>184</ele>
        <time>2023-11-02T16:59:18Z</time>
      </trkpt>
      <trkpt lat="48.85648" lon="-0.47342">
        <ele>185</ele>
        <time>2023-11-02T16:59:23Z</time>
      </trkpt>
      <trkpt lat="48.85653" lon="-0.47342">
        <ele>184</ele>
        <time>2023-11-02T16:59:30Z</time>
      </trkpt>
      <trkpt lat="48.85652" lon="-0.47348">
        <ele>184</ele>
        <time>2023-11-02T16:59:35Z</time>
      </trkpt>
      <trkpt lat="48.85655" lon="-0.47344">
        <ele>183</ele>
        <time>2023-11-02T16:59:40Z</time>
      </trkpt>
      <trkpt lat="48.85648" lon="-0.47361">
        <ele>186</ele>
        <time>2023-11-02T16:59:58Z</time>
      </trkpt>
      <trkpt lat="48.85635" lon="-0.47427">
        <ele>193</ele>
        <time>2023-11-02T17:00:58Z</time>
      </trkpt>
      <trkpt lat="48.85605" lon="-0.47462">
        <ele>204</ele>
        <time>2023-11-02T17:01:49Z</time>
      </trkpt>
      <trkpt lat="48.85596" lon="-0.4746">
        <ele>207</ele>
        <time>2023-11-02T17:02:01Z</time>
      </trkpt>
      <trkpt lat="48.85594" lon="-0.47454">
        <ele>207</ele>
        <time>2023-11-02T17:02:07Z</time>
      </trkpt>
      <trkpt lat="48.85597" lon="-0.47459">
        <ele>207</ele>
        <time>2023-11-02T17:02:13Z</time>
      </trkpt>
      <trkpt lat="48.85594" lon="-0.47466">
        <ele>208</ele>
        <time>2023-11-02T17:02:20Z</time>
      </trkpt>
      <trkpt lat="48.85573" lon="-0.47489">
        <ele>213</ele>
        <time>2023-11-02T17:02:55Z</time>
      </trkpt>
      <trkpt lat="48.85545" lon="-0.47511">
        <ele>216</ele>
        <time>2023-11-02T17:03:37Z</time>
      </trkpt>
      <trkpt lat="48.85544" lon="-0.47521">
        <ele>216</ele>
        <time>2023-11-02T17:03:46Z</time>
      </trkpt>
      <trkpt lat="48.85539" lon="-0.47526">
        <ele>216</ele>
        <time>2023-11-02T17:03:54Z</time>
      </trkpt>
      <trkpt lat="48.855" lon="-0.47533">
        <ele>220</ele>
        <time>2023-11-02T17:04:46Z</time>
      </trkpt>
      <trkpt lat="48.85474" lon="-0.47549">
        <ele>221</ele>
        <time>2023-11-02T17:05:24Z</time>
      </trkpt>
      <trkpt lat="48.85468" lon="-0.47555">
        <ele>221</ele>
        <time>2023-11-02T17:05:33Z</time>
      </trkpt>
      <trkpt lat="48.85467" lon="-0.47565">
        <ele>221</ele>
        <time>2023-11-02T17:05:42Z</time>
      </trkpt>
      <trkpt lat="48.85462" lon="-0.47568">
        <ele>222</ele>
        <time>2023-11-02T17:05:49Z</time>
      </trkpt>
      <trkpt lat="48.85461" lon="-0.47565">
        <ele>222</ele>
        <time>2023-11-02T17:05:52Z</time>
      </trkpt>
      <trkpt lat="48.85462" lon="-0.4757">
        <ele>222</ele>
        <time>2023-11-02T17:05:57Z</time>
      </trkpt>
      <trkpt lat="48.85458" lon="-0.47569">
        <ele>222</ele>
        <time>2023-11-02T17:06:02Z</time>
      </trkpt>
      <trkpt lat="48.8546" lon="-0.47565">
        <ele>222</ele>
        <time>2023-11-02T17:06:07Z</time>
      </trkpt>
      <trkpt lat="48.85462" lon="-0.47569">
        <ele>222</ele>
        <time>2023-11-02T17:06:11Z</time>
      </trkpt>
      <trkpt lat="48.85457" lon="-0.47565">
        <ele>222</ele>
        <time>2023-11-02T17:06:19Z</time>
      </trkpt>
      <trkpt lat="48.85447" lon="-0.4757">
        <ele>223</ele>
        <time>2023-11-02T17:06:33Z</time>
      </trkpt>
      <trkpt lat="48.85408" lon="-0.47597">
        <ele>225</ele>
        <time>2023-11-02T17:07:30Z</time>
      </trkpt>
      <trkpt lat="48.85381" lon="-0.47623">
        <ele>225</ele>
        <time>2023-11-02T17:08:12Z</time>
      </trkpt>
      <trkpt lat="48.85331" lon="-0.47661">
        <ele>226</ele>
        <time>2023-11-02T17:09:27Z</time>
      </trkpt>
      <trkpt lat="48.853" lon="-0.47666">
        <ele>225</ele>
        <time>2023-11-02T17:10:09Z</time>
      </trkpt>
      <trkpt lat="48.8523" lon="-0.47653">
        <ele>222</ele>
        <time>2023-11-02T17:11:43Z</time>
      </trkpt>
      <trkpt lat="48.85134" lon="-0.47781">
        <ele>218</ele>
        <time>2023-11-02T17:14:33Z</time>
      </trkpt>
      <trkpt lat="48.85097" lon="-0.47848">
        <ele>216</ele>
        <time>2023-11-02T17:15:50Z</time>
      </trkpt>
      <trkpt lat="48.85048" lon="-0.47911">
        <ele>214</ele>
        <time>2023-11-02T17:17:16Z</time>
      </trkpt>
      <trkpt lat="48.85012" lon="-0.47998">
        <ele>214</ele>
        <time>2023-11-02T17:18:46Z</time>
      </trkpt>
      <trkpt lat="48.85005" lon="-0.48054">
        <ele>214</ele>
        <time>2023-11-02T17:19:36Z</time>
      </trkpt>
      <trkpt lat="48.84997" lon="-0.48012">
        <ele>213</ele>
        <time>2023-11-02T17:20:14Z</time>
      </trkpt>
      <trkpt lat="48.85002" lon="-0.48013">
        <ele>213</ele>
        <time>2023-11-02T17:20:21Z</time>
      </trkpt>
      <trkpt lat="48.84999" lon="-0.48015">
        <ele>213</ele>
        <time>2023-11-02T17:20:25Z</time>
      </trkpt>
      <trkpt lat="48.84999" lon="-0.48012">
        <ele>213</ele>
        <time>2023-11-02T17:20:28Z</time>
      </trkpt>
      <trkpt lat="48.84997" lon="-0.48017">
        <ele>213</ele>
        <time>2023-11-02T17:20:33Z</time>
      </trkpt>
      <trkpt lat="48.84997" lon="-0.48014">
        <ele>213</ele>
        <time>2023-11-02T17:20:36Z</time>
      </trkpt>
      <trkpt lat="48.85" lon="-0.48016">
        <ele>213</ele>
        <time>2023-11-02T17:20:40Z</time>
      </trkpt>
      <trkpt lat="48.84997" lon="-0.48017">
        <ele>213</ele>
        <time>2023-11-02T17:20:44Z</time>
      </trkpt>
      <trkpt lat="48.85001" lon="-0.48033">
        <ele>213</ele>
        <time>2023-11-02T17:20:59Z</time>
      </trkpt>
      <trkpt lat="48.84995" lon="-0.48043">
        <ele>213</ele>
        <time>2023-11-02T17:21:11Z</time>
      </trkpt>
      <trkpt lat="48.84983" lon="-0.481">
        <ele>213</ele>
        <time>2023-11-02T17:22:04Z</time>
      </trkpt>
      <trkpt lat="48.84983" lon="-0.48114">
        <ele>214</ele>
        <time>2023-11-02T17:22:16Z</time>
      </trkpt>
      <trkpt lat="48.8499" lon="-0.48132">
        <ele>215</ele>
        <time>2023-11-02T17:22:34Z</time>
      </trkpt>
      <trkpt lat="48.84988" lon="-0.48148">
        <ele>215</ele>
        <time>2023-11-02T17:22:49Z</time>
      </trkpt>
      <trkpt lat="48.84983" lon="-0.48155">
        <ele>215</ele>
        <time>2023-11-02T17:22:58Z</time>
      </trkpt>
      <trkpt lat="48.84942" lon="-0.48307">
        <ele>214</ele>
        <time>2023-11-02T17:25:22Z</time>
      </trkpt>
      <trkpt lat="48.8493" lon="-0.48338">
        <ele>214</ele>
        <time>2023-11-02T17:25:54Z</time>
      </trkpt>
      <trkpt lat="48.84918" lon="-0.48402">
        <ele>213</ele>
        <time>2023-11-02T17:26:52Z</time>
      </trkpt>
      <trkpt lat="48.84912" lon="-0.48543">
        <ele>211</ele>
        <time>2023-11-02T17:28:56Z</time>
      </trkpt>
      <trkpt lat="48.84923" lon="-0.4862">
        <ele>209</ele>
        <time>2023-11-02T17:30:05Z</time>
      </trkpt>
      <trkpt lat="48.84959" lon="-0.4873">
        <ele>205</ele>
        <time>2023-11-02T17:31:53Z</time>
      </trkpt>
      <trkpt lat="48.8497" lon="-0.48786">
        <ele>203</ele>
        <time>2023-11-02T17:32:45Z</time>
      </trkpt>
      <trkpt lat="48.8497" lon="-0.48852">
        <ele>201</ele>
        <time>2023-11-02T17:33:43Z</time>
      </trkpt>
      <trkpt lat="48.84977" lon="-0.4891">
        <ele>201</ele>
        <time>2023-11-02T17:34:34Z</time>
      </trkpt>
      <trkpt lat="48.84974" lon="-0.48927">
        <ele>200</ele>
        <time>2023-11-02T17:34:50Z</time>
      </trkpt>
      <trkpt lat="48.84979" lon="-0.48978">
        <ele>200</ele>
        <time>2023-11-02T17:35:35Z</time>
      </trkpt>
      <trkpt lat="48.84996" lon="-0.49115">
        <ele>203</ele>
        <time>2023-11-02T17:37:37Z</time>
      </trkpt>
      <trkpt lat="48.85008" lon="-0.49171">
        <ele>205</ele>
        <time>2023-11-02T17:38:29Z</time>
      </trkpt>
      <trkpt lat="48.85019" lon="-0.4927">
        <ele>202</ele>
        <time>2023-11-02T17:39:57Z</time>
      </trkpt>
      <trkpt lat="48.85035" lon="-0.49331">
        <ele>198</ele>
        <time>2023-11-02T17:40:55Z</time>
      </trkpt>
      <trkpt lat="48.85058" lon="-0.49392">
        <ele>197</ele>
        <time>2023-11-02T17:41:57Z</time>
      </trkpt>
      <trkpt lat="48.85065" lon="-0.49426">
        <ele>197</ele>
        <time>2023-11-02T17:42:28Z</time>
      </trkpt>
      <trkpt lat="48.85062" lon="-0.49482">
        <ele>195</ele>
        <time>2023-11-02T17:43:17Z</time>
      </trkpt>
      <trkpt lat="48.85067" lon="-0.4963">
        <ele>194</ele>
        <time>2023-11-02T17:45:27Z</time>
      </trkpt>
      <trkpt lat="48.85061" lon="-0.49707">
        <ele>191</ele>
        <time>2023-11-02T17:46:36Z</time>
      </trkpt>
      <trkpt lat="48.85071" lon="-0.49911">
        <ele>184</ele>
        <time>2023-11-02T17:49:35Z</time>
      </trkpt>
      <trkpt lat="48.85068" lon="-0.49936">
        <ele>184</ele>
        <time>2023-11-02T17:49:58Z</time>
      </trkpt>
      <trkpt lat="48.85051" lon="-0.49973">
        <ele>184</ele>
        <time>2023-11-02T17:50:37Z</time>
      </trkpt>
      <trkpt lat="48.85045" lon="-0.50005">
        <ele>184</ele>
        <time>2023-11-02T17:51:06Z</time>
      </trkpt>
      <trkpt lat="48.85033" lon="-0.50034">
        <ele>184</ele>
        <time>2023-11-02T17:51:36Z</time>
      </trkpt>
      <trkpt lat="48.85019" lon="-0.50119">
        <ele>182</ele>
        <time>2023-11-02T17:52:53Z</time>
      </trkpt>
      <trkpt lat="48.85005" lon="-0.50158">
        <ele>183</ele>
        <time>2023-11-02T17:53:32Z</time>
      </trkpt>
      <trkpt lat="48.84995" lon="-0.50216">
        <ele>181</ele>
        <time>2023-11-02T17:54:25Z</time>
      </trkpt>
      <trkpt lat="48.84993" lon="-0.50258">
        <ele>179</ele>
        <time>2023-11-02T17:55:02Z</time>
      </trkpt>
      <trkpt lat="48.84976" lon="-0.50314">
        <ele>177</ele>
        <time>2023-11-02T17:55:56Z</time>
      </trkpt>
      <trkpt lat="48.84971" lon="-0.50363">
        <ele>174</ele>
        <time>2023-11-02T17:56:40Z</time>
      </trkpt>
      <trkpt lat="48.84951" lon="-0.50406">
        <ele>172</ele>
        <time>2023-11-02T17:57:26Z</time>
      </trkpt>
      <trkpt lat="48.8493" lon="-0.50509">
        <ele>166</ele>
        <time>2023-11-02T17:59:01Z</time>
      </trkpt>
      <trkpt lat="48.84912" lon="-0.50557">
        <ele>165</ele>
        <time>2023-11-02T17:59:49Z</time>
      </trkpt>
      <trkpt lat="48.84906" lon="-0.50594">
        <ele>163</ele>
        <time>2023-11-02T18:00:23Z</time>
      </trkpt>
      <trkpt lat="48.84908" lon="-0.50634">
        <ele>159</ele>
        <time>2023-11-02T18:00:58Z</time>
      </trkpt>
      <trkpt lat="48.84902" lon="-0.50686">
        <ele>155</ele>
        <time>2023-11-02T18:01:44Z</time>
      </trkpt>
      <trkpt lat="48.84892" lon="-0.5073">
        <ele>153</ele>
        <time>2023-11-02T18:02:25Z</time>
      </trkpt>
      <trkpt lat="48.84893" lon="-0.50781">
        <ele>148</ele>
        <time>2023-11-02T18:03:10Z</time>
      </trkpt>
      <trkpt lat="48.84899" lon="-0.50788">
        <ele>147</ele>
        <time>2023-11-02T18:03:20Z</time>
      </trkpt>
      <trkpt lat="48.84895" lon="-0.50807">
        <ele>146</ele>
        <time>2023-11-02T18:03:38Z</time>
      </trkpt>
      <trkpt lat="48.84898" lon="-0.50839">
        <ele>142</ele>
        <time>2023-11-02T18:04:06Z</time>
      </trkpt>
      <trkpt lat="48.84893" lon="-0.50869">
        <ele>140</ele>
        <time>2023-11-02T18:04:33Z</time>
      </trkpt>
      <trkpt lat="48.84892" lon="-0.50946">
        <ele>132</ele>
        <time>2023-11-02T18:05:41Z</time>
      </trkpt>
      <trkpt lat="48.84896" lon="-0.50984">
        <ele>127</ele>
        <time>2023-11-02T18:06:14Z</time>
      </trkpt>
      <trkpt lat="48.84904" lon="-0.51003">
        <ele>125</ele>
        <time>2023-11-02T18:06:34Z</time>
      </trkpt>
      <trkpt lat="48.84913" lon="-0.51006">
        <ele>125</ele>
        <time>2023-11-02T18:06:47Z</time>
      </trkpt>
      <trkpt lat="48.84919" lon="-0.51022">
        <ele>123</ele>
        <time>2023-11-02T18:07:03Z</time>
      </trkpt>
      <trkpt lat="48.84924" lon="-0.51077">
        <ele>117</ele>
        <time>2023-11-02T18:07:52Z</time>
      </trkpt>
      <trkpt lat="48.84939" lon="-0.51108">
        <ele>112</ele>
        <time>2023-11-02T18:08:25Z</time>
      </trkpt>
      <trkpt lat="48.84946" lon="-0.51157">
        <ele>107</ele>
        <time>2023-11-02T18:09:09Z</time>
      </trkpt>
      <trkpt lat="48.84957" lon="-0.51176">
        <ele>105</ele>
        <time>2023-11-02T18:09:32Z</time>
      </trkpt>
      <trkpt lat="48.84964" lon="-0.51199">
        <ele>103</ele>
        <time>2023-11-02T18:09:54Z</time>
      </trkpt>
      <trkpt lat="48.84976" lon="-0.5128">
        <ele>97</ele>
        <time>2023-11-02T18:11:07Z</time>
      </trkpt>
      <trkpt lat="48.84989" lon="-0.51319">
        <ele>95</ele>
        <time>2023-11-02T18:11:45Z</time>
      </trkpt>
      <trkpt lat="48.85011" lon="-0.51419">
        <ele>87</ele>
        <time>2023-11-02T18:13:18Z</time>
      </trkpt>
      <trkpt lat="48.85029" lon="-0.51461">
        <ele>85</ele>
        <time>2023-11-02T18:14:02Z</time>
      </trkpt>
      <trkpt lat="48.85034" lon="-0.51483">
        <ele>83</ele>
        <time>2023-11-02T18:14:22Z</time>
      </trkpt>
      <trkpt lat="48.85039" lon="-0.51486">
        <ele>83</ele>
        <time>2023-11-02T18:14:29Z</time>
      </trkpt>
      <trkpt lat="48.85038" lon="-0.51483">
        <ele>84</ele>
        <time>2023-11-02T18:14:32Z</time>
      </trkpt>
      <trkpt lat="48.8504" lon="-0.51511">
        <ele>82</ele>
        <time>2023-11-02T18:14:57Z</time>
      </trkpt>
      <trkpt lat="48.85053" lon="-0.51566">
        <ele>80</ele>
        <time>2023-11-02T18:15:48Z</time>
      </trkpt>
      <trkpt lat="48.85055" lon="-0.516">
        <ele>78</ele>
        <time>2023-11-02T18:16:18Z</time>
      </trkpt>
      <trkpt lat="48.85035" lon="-0.51626">
        <ele>76</ele>
        <time>2023-11-02T18:16:53Z</time>
      </trkpt>
      <trkpt lat="48.85037" lon="-0.51676">
        <ele>75</ele>
        <time>2023-11-02T18:17:37Z</time>
      </trkpt>
      <trkpt lat="48.8502" lon="-0.51721">
        <ele>75</ele>
        <time>2023-11-02T18:18:23Z</time>
      </trkpt>
      <trkpt lat="48.85032" lon="-0.51772">
        <ele>75</ele>
        <time>2023-11-02T18:19:11Z</time>
      </trkpt>
      <trkpt lat="48.85029" lon="-0.51797">
        <ele>75</ele>
        <time>2023-11-02T18:19:33Z</time>
      </trkpt>
      <trkpt lat="48.8502" lon="-0.51819">
        <ele>75</ele>
        <time>2023-11-02T18:19:56Z</time>
      </trkpt>
      <trkpt lat="48.85007" lon="-0.51835">
        <ele>75</ele>
        <time>2023-11-02T18:20:18Z</time>
      </trkpt>
      <trkpt lat="48.84999" lon="-0.51834">
        <ele>75</ele>
        <time>2023-11-02T18:20:29Z</time>
      </trkpt>
      <trkpt lat="48.84998" lon="-0.51828">
        <ele>75</ele>
        <time>2023-11-02T18:20:34Z</time>
      </trkpt>
      <trkpt lat="48.85004" lon="-0.51832">
        <ele>75</ele>
        <time>2023-11-02T18:20:43Z</time>
      </trkpt>
      <trkpt lat="48.85005" lon="-0.51838">
        <ele>75</ele>
        <time>2023-11-02T18:20:48Z</time>
      </trkpt>
      <trkpt lat="48.85009" lon="-0.51838">
        <ele>75</ele>
        <time>2023-11-02T18:20:54Z</time>
      </trkpt>
      <trkpt lat="48.85009" lon="-0.51832">
        <ele>75</ele>
        <time>2023-11-02T18:20:59Z</time>
      </trkpt>
      <trkpt lat="48.85009" lon="-0.51836">
        <ele>75</ele>
        <time>2023-11-02T18:21:02Z</time>
      </trkpt>
      <trkpt lat="48.85002" lon="-0.5184">
        <ele>75</ele>
        <time>2023-11-02T18:21:12Z</time>
      </trkpt>
      <trkpt lat="48.84991" lon="-0.51828">
        <ele>76</ele>
        <time>2023-11-02T18:21:30Z</time>
      </trkpt>
      <trkpt lat="48.84971" lon="-0.51832">
        <ele>77</ele>
        <time>2023-11-02T18:21:57Z</time>
      </trkpt>
      <trkpt lat="48.84965" lon="-0.51837">
        <ele>77</ele>
        <time>2023-11-02T18:22:06Z</time>
      </trkpt>
      <trkpt lat="48.84948" lon="-0.5188">
        <ele>78</ele>
        <time>2023-11-02T18:22:51Z</time>
      </trkpt>
      <trkpt lat="48.84916" lon="-0.51936">
        <ele>79</ele>
        <time>2023-11-02T18:23:56Z</time>
      </trkpt>
      <trkpt lat="48.84904" lon="-0.51971">
        <ele>79</ele>
        <time>2023-11-02T18:24:30Z</time>
      </trkpt>
      <trkpt lat="48.84898" lon="-0.52007">
        <ele>80</ele>
        <time>2023-11-02T18:25:03Z</time>
      </trkpt>
      <trkpt lat="48.84889" lon="-0.52027">
        <ele>81</ele>
        <time>2023-11-02T18:25:24Z</time>
      </trkpt>
      <trkpt lat="48.8486" lon="-0.52076">
        <ele>87</ele>
        <time>2023-11-02T18:26:22Z</time>
      </trkpt>
      <trkpt lat="48.84837" lon="-0.52125">
        <ele>92</ele>
        <time>2023-11-02T18:27:15Z</time>
      </trkpt>
      <trkpt lat="48.84828" lon="-0.52139">
        <ele>94</ele>
        <time>2023-11-02T18:27:32Z</time>
      </trkpt>
      <trkpt lat="48.84824" lon="-0.52139">
        <ele>94</ele>
        <time>2023-11-02T18:27:37Z</time>
      </trkpt>
      <trkpt lat="48.84812" lon="-0.52189">
        <ele>97</ele>
        <time>2023-11-02T18:28:24Z</time>
      </trkpt>
      <trkpt lat="48.84798" lon="-0.52209">
        <ele>100</ele>
        <time>2023-11-02T18:28:50Z</time>
      </trkpt>
      <trkpt lat="48.84776" lon="-0.52285">
        <ele>109</ele>
        <time>2023-11-02T18:30:03Z</time>
      </trkpt>
      <trkpt lat="48.84757" lon="-0.52313">
        <ele>116</ele>
        <time>2023-11-02T18:30:38Z</time>
      </trkpt>
      <trkpt lat="48.84751" lon="-0.52332">
        <ele>119</ele>
        <time>2023-11-02T18:30:57Z</time>
      </trkpt>
      <trkpt lat="48.84724" lon="-0.52365">
        <ele>124</ele>
        <time>2023-11-02T18:31:43Z</time>
      </trkpt>
      <trkpt lat="48.84695" lon="-0.5239">
        <ele>128</ele>
        <time>2023-11-02T18:32:27Z</time>
      </trkpt>
      <trkpt lat="48.84697" lon="-0.52396">
        <ele>129</ele>
        <time>2023-11-02T18:32:33Z</time>
      </trkpt>
      <trkpt lat="48.84692" lon="-0.52406">
        <ele>130</ele>
        <time>2023-11-02T18:32:44Z</time>
      </trkpt>
      <trkpt lat="48.84644" lon="-0.52464">
        <ele>135</ele>
        <time>2023-11-02T18:34:06Z</time>
      </trkpt>
      <trkpt lat="48.84612" lon="-0.52522">
        <ele>136</ele>
        <time>2023-11-02T18:35:13Z</time>
      </trkpt>
      <trkpt lat="48.84605" lon="-0.5252">
        <ele>136</ele>
        <time>2023-11-02T18:35:22Z</time>
      </trkpt>
      <trkpt lat="48.84596" lon="-0.5249">
        <ele>136</ele>
        <time>2023-11-02T18:35:51Z</time>
      </trkpt>
      <trkpt lat="48.84586" lon="-0.52479">
        <ele>136</ele>
        <time>2023-11-02T18:36:07Z</time>
      </trkpt>
      <trkpt lat="48.84525" lon="-0.52542">
        <ele>140</ele>
        <time>2023-11-02T18:37:46Z</time>
      </trkpt>
      <trkpt lat="48.8451" lon="-0.52548">
        <ele>141</ele>
        <time>2023-11-02T18:38:07Z</time>
      </trkpt>
      <trkpt lat="48.84474" lon="-0.5255">
        <ele>143</ele>
        <time>2023-11-02T18:38:55Z</time>
      </trkpt>
      <trkpt lat="48.84441" lon="-0.52567">
        <ele>145</ele>
        <time>2023-11-02T18:39:41Z</time>
      </trkpt>
      <trkpt lat="48.84389" lon="-0.52633">
        <ele>148</ele>
        <time>2023-11-02T18:41:12Z</time>
      </trkpt>
      <trkpt lat="48.84332" lon="-0.52679">
        <ele>151</ele>
        <time>2023-11-02T18:42:38Z</time>
      </trkpt>
      <trkpt lat="48.843" lon="-0.5273">
        <ele>151</ele>
        <time>2023-11-02T18:43:40Z</time>
      </trkpt>
      <trkpt lat="48.84286" lon="-0.52743">
        <ele>151</ele>
        <time>2023-11-02T18:44:01Z</time>
      </trkpt>
      <trkpt lat="48.84246" lon="-0.528">
        <ele>147</ele>
        <time>2023-11-02T18:45:15Z</time>
      </trkpt>
      <trkpt lat="48.84218" lon="-0.52848">
        <ele>144</ele>
        <time>2023-11-02T18:46:11Z</time>
      </trkpt>
      <trkpt lat="48.84189" lon="-0.52883">
        <ele>142</ele>
        <time>2023-11-02T18:47:00Z</time>
      </trkpt>
      <trkpt lat="48.84182" lon="-0.52884">
        <ele>142</ele>
        <time>2023-11-02T18:47:10Z</time>
      </trkpt>
      <trkpt lat="48.84172" lon="-0.52879">
        <ele>143</ele>
        <time>2023-11-02T18:47:24Z</time>
      </trkpt>
      <trkpt lat="48.84149" lon="-0.52856">
        <ele>146</ele>
        <time>2023-11-02T18:48:01Z</time>
      </trkpt>
      <trkpt lat="48.84131" lon="-0.52823">
        <ele>150</ele>
        <time>2023-11-02T18:48:38Z</time>
      </trkpt>
      <trkpt lat="48.84104" lon="-0.52792">
        <ele>154</ele>
        <time>2023-11-02T18:49:23Z</time>
      </trkpt>
      <trkpt lat="48.84088" lon="-0.5279">
        <ele>155</ele>
        <time>2023-11-02T18:49:45Z</time>
      </trkpt>
      <trkpt lat="48.84071" lon="-0.52773">
        <ele>158</ele>
        <time>2023-11-02T18:50:12Z</time>
      </trkpt>
      <trkpt lat="48.84038" lon="-0.52765">
        <ele>162</ele>
        <time>2023-11-02T18:50:57Z</time>
      </trkpt>
      <trkpt lat="48.83977" lon="-0.52716">
        <ele>169</ele>
        <time>2023-11-02T18:52:29Z</time>
      </trkpt>
      <trkpt lat="48.83963" lon="-0.52716">
        <ele>170</ele>
        <time>2023-11-02T18:52:47Z</time>
      </trkpt>
      <trkpt lat="48.83937" lon="-0.52701">
        <ele>172</ele>
        <time>2023-11-02T18:53:24Z</time>
      </trkpt>
      <trkpt lat="48.83853" lon="-0.52624">
        <ele>179</ele>
        <time>2023-11-02T18:55:35Z</time>
      </trkpt>
      <trkpt lat="48.83823" lon="-0.52593">
        <ele>181</ele>
        <time>2023-11-02T18:56:24Z</time>
      </trkpt>
      <trkpt lat="48.83814" lon="-0.52574">
        <ele>181</ele>
        <time>2023-11-02T18:56:44Z</time>
      </trkpt>
      <trkpt lat="48.83804" lon="-0.52574">
        <ele>182</ele>
        <time>2023-11-02T18:56:58Z</time>
      </trkpt>
      <trkpt lat="48.83803" lon="-0.52571">
        <ele>182</ele>
        <time>2023-11-02T18:57:01Z</time>
      </trkpt>
      <trkpt lat="48.83803" lon="-0.52579">
        <ele>182</ele>
        <time>2023-11-02T18:57:08Z</time>
      </trkpt>
      <trkpt lat="48.83801" lon="-0.52577">
        <ele>182</ele>
        <time>2023-11-02T18:57:11Z</time>
      </trkpt>
      <trkpt lat="48.83787" lon="-0.52584">
        <ele>183</ele>
        <time>2023-11-02T18:57:31Z</time>
      </trkpt>
      <trkpt lat="48.8373" lon="-0.52632">
        <ele>184</ele>
        <time>2023-11-02T18:58:57Z</time>
      </trkpt>
      <trkpt lat="48.83688" lon="-0.52654">
        <ele>185</ele>
        <time>2023-11-02T18:59:57Z</time>
      </trkpt>
      <trkpt lat="48.8366" lon="-0.52679">
        <ele>185</ele>
        <time>2023-11-02T19:00:40Z</time>
      </trkpt>
      <trkpt lat="48.83621" lon="-0.52693">
        <ele>186</ele>
        <time>2023-11-02T19:01:34Z</time>
      </trkpt>
      <trkpt lat="48.83582" lon="-0.5272">
        <ele>189</ele>
        <time>2023-11-02T19:02:31Z</time>
      </trkpt>
      <trkpt lat="48.83551" lon="-0.52725">
        <ele>190</ele>
        <time>2023-11-02T19:03:12Z</time>
      </trkpt>
      <trkpt lat="48.83542" lon="-0.5273">
        <ele>191</ele>
        <time>2023-11-02T19:03:25Z</time>
      </trkpt>
      <trkpt lat="48.83518" lon="-0.52756">
        <ele>192</ele>
        <time>2023-11-02T19:04:05Z</time>
      </trkpt>
      <trkpt lat="48.83491" lon="-0.52774">
        <ele>193</ele>
        <time>2023-11-02T19:04:44Z</time>
      </trkpt>
      <trkpt lat="48.83457" lon="-0.52789">
        <ele>195</ele>
        <time>2023-11-02T19:05:31Z</time>
      </trkpt>
      <trkpt lat="48.83421" lon="-0.52821">
        <ele>199</ele>
        <time>2023-11-02T19:06:27Z</time>
      </trkpt>
      <trkpt lat="48.83411" lon="-0.52825">
        <ele>200</ele>
        <time>2023-11-02T19:06:41Z</time>
      </trkpt>
      <trkpt lat="48.83413" lon="-0.52819">
        <ele>199</ele>
        <time>2023-11-02T19:06:46Z</time>
      </trkpt>
      <trkpt lat="48.83421" lon="-0.52817">
        <ele>199</ele>
        <time>2023-11-02T19:06:57Z</time>
      </trkpt>
      <trkpt lat="48.83413" lon="-0.52839">
        <ele>200</ele>
        <time>2023-11-02T19:07:19Z</time>
      </trkpt>
      <trkpt lat="48.83412" lon="-0.52872">
        <ele>200</ele>
        <time>2023-11-02T19:07:48Z</time>
      </trkpt>
      <trkpt lat="48.83436" lon="-0.5298">
        <ele>198</ele>
        <time>2023-11-02T19:09:29Z</time>
      </trkpt>
      <trkpt lat="48.83439" lon="-0.53009">
        <ele>198</ele>
        <time>2023-11-02T19:09:54Z</time>
      </trkpt>
      <trkpt lat="48.83458" lon="-0.53073">
        <ele>197</ele>
        <time>2023-11-02T19:10:56Z</time>
      </trkpt>
      <trkpt lat="48.83483" lon="-0.53274">
        <ele>189</ele>
        <time>2023-11-02T19:13:56Z</time>
      </trkpt>
      <trkpt lat="48.83495" lon="-0.53302">
        <ele>187</ele>
        <time>2023-11-02T19:14:25Z</time>
      </trkpt>
      <trkpt lat="48.83501" lon="-0.53333">
        <ele>186</ele>
        <time>2023-11-02T19:14:53Z</time>
      </trkpt>
      <trkpt lat="48.83478" lon="-0.53502">
        <ele>177</ele>
        <time>2023-11-02T19:17:25Z</time>
      </trkpt>
      <trkpt lat="48.83486" lon="-0.5354">
        <ele>175</ele>
        <time>2023-11-02T19:18:00Z</time>
      </trkpt>
      <trkpt lat="48.83486" lon="-0.53561">
        <ele>174</ele>
        <time>2023-11-02T19:18:18Z</time>
      </trkpt>
      <trkpt lat="48.83504" lon="-0.53626">
        <ele>170</ele>
        <time>2023-11-02T19:19:20Z</time>
      </trkpt>
      <trkpt lat="48.8353" lon="-0.53667">
        <ele>165</ele>
        <time>2023-11-02T19:20:10Z</time>
      </trkpt>
      <trkpt lat="48.83557" lon="-0.53687">
        <ele>162</ele>
        <time>2023-11-02T19:20:50Z</time>
      </trkpt>
      <trkpt lat="48.83608" lon="-0.53736">
        <ele>156</ele>
        <time>2023-11-02T19:22:11Z</time>
      </trkpt>
      <trkpt lat="48.8362" lon="-0.53753">
        <ele>154</ele>
        <time>2023-11-02T19:22:33Z</time>
      </trkpt>
      <trkpt lat="48.83654" lon="-0.5378">
        <ele>150</ele>
        <time>2023-11-02T19:23:24Z</time>
      </trkpt>
      <trkpt lat="48.837" lon="-0.53848">
        <ele>146</ele>
        <time>2023-11-02T19:24:50Z</time>
      </trkpt>
      <trkpt lat="48.8371" lon="-0.53869">
        <ele>144</ele>
        <time>2023-11-02T19:25:13Z</time>
      </trkpt>
      <trkpt lat="48.83717" lon="-0.5391">
        <ele>143</ele>
        <time>2023-11-02T19:25:50Z</time>
      </trkpt>
      <trkpt lat="48.83712" lon="-0.53966">
        <ele>143</ele>
        <time>2023-11-02T19:26:39Z</time>
      </trkpt>
      <trkpt lat="48.83718" lon="-0.53984">
        <ele>143</ele>
        <time>2023-11-02T19:26:57Z</time>
      </trkpt>
      <trkpt lat="48.83749" lon="-0.54032">
        <ele>143</ele>
        <time>2023-11-02T19:27:56Z</time>
      </trkpt>
      <trkpt lat="48.83891" lon="-0.54181">
        <ele>140</ele>
        <time>2023-11-02T19:31:46Z</time>
      </trkpt>
      <trkpt lat="48.83909" lon="-0.54193">
        <ele>139</ele>
        <time>2023-11-02T19:32:13Z</time>
      </trkpt>
      <trkpt lat="48.83973" lon="-0.54214">
        <ele>137</ele>
        <time>2023-11-02T19:33:40Z</time>
      </trkpt>
      <trkpt lat="48.83996" lon="-0.54231">
        <ele>137</ele>
        <time>2023-11-02T19:34:14Z</time>
      </trkpt>
      <trkpt lat="48.84007" lon="-0.54248">
        <ele>137</ele>
        <time>2023-11-02T19:34:35Z</time>
      </trkpt>
      <trkpt lat="48.84023" lon="-0.54276">
        <ele>136</ele>
        <time>2023-11-02T19:35:08Z</time>
      </trkpt>
      <trkpt lat="48.84028" lon="-0.54299">
        <ele>136</ele>
        <time>2023-11-02T19:35:29Z</time>
      </trkpt>
      <trkpt lat="48.84066" lon="-0.54394">
        <ele>136</ele>
        <time>2023-11-02T19:37:07Z</time>
      </trkpt>
      <trkpt lat="48.84092" lon="-0.54446">
        <ele>134</ele>
        <time>2023-11-02T19:38:04Z</time>
      </trkpt>
      <trkpt lat="48.84146" lon="-0.5453">
        <ele>132</ele>
        <time>2023-11-02T19:39:47Z</time>
      </trkpt>
      <trkpt lat="48.84157" lon="-0.54563">
        <ele>131</ele>
        <time>2023-11-02T19:40:20Z</time>
      </trkpt>
      <trkpt lat="48.84178" lon="-0.54605">
        <ele>130</ele>
        <time>2023-11-02T19:41:06Z</time>
      </trkpt>
      <trkpt lat="48.84184" lon="-0.54632">
        <ele>129</ele>
        <time>2023-11-02T19:41:31Z</time>
      </trkpt>
      <trkpt lat="48.84202" lon="-0.54656">
        <ele>128</ele>
        <time>2023-11-02T19:42:03Z</time>
      </trkpt>
      <trkpt lat="48.84215" lon="-0.54701">
        <ele>126</ele>
        <time>2023-11-02T19:42:46Z</time>
      </trkpt>
      <trkpt lat="48.8423" lon="-0.54726">
        <ele>124</ele>
        <time>2023-11-02T19:43:16Z</time>
      </trkpt>
      <trkpt lat="48.84231" lon="-0.54752">
        <ele>123</ele>
        <time>2023-11-02T19:43:39Z</time>
      </trkpt>
      <trkpt lat="48.84271" lon="-0.54783">
        <ele>122</ele>
        <time>2023-11-02T19:44:39Z</time>
      </trkpt>
      <trkpt lat="48.84322" lon="-0.54786">
        <ele>119</ele>
        <time>2023-11-02T19:45:47Z</time>
      </trkpt>
      <trkpt lat="48.84341" lon="-0.54791">
        <ele>118</ele>
        <time>2023-11-02T19:46:12Z</time>
      </trkpt>
      <trkpt lat="48.84351" lon="-0.54798">
        <ele>118</ele>
        <time>2023-11-02T19:46:27Z</time>
      </trkpt>
      <trkpt lat="48.84379" lon="-0.54795">
        <ele>116</ele>
        <time>2023-11-02T19:47:05Z</time>
      </trkpt>
      <trkpt lat="48.8443" lon="-0.54805">
        <ele>112</ele>
        <time>2023-11-02T19:48:13Z</time>
      </trkpt>
      <trkpt lat="48.8446" lon="-0.54819">
        <ele>110</ele>
        <time>2023-11-02T19:48:55Z</time>
      </trkpt>
      <trkpt lat="48.845" lon="-0.54829">
        <ele>107</ele>
        <time>2023-11-02T19:49:49Z</time>
      </trkpt>
      <trkpt lat="48.84525" lon="-0.54844">
        <ele>104</ele>
        <time>2023-11-02T19:50:25Z</time>
      </trkpt>
      <trkpt lat="48.84555" lon="-0.54848">
        <ele>102</ele>
        <time>2023-11-02T19:51:05Z</time>
      </trkpt>
      <trkpt lat="48.84599" lon="-0.54889">
        <ele>95</ele>
        <time>2023-11-02T19:52:14Z</time>
      </trkpt>
      <trkpt lat="48.84611" lon="-0.54892">
        <ele>94</ele>
        <time>2023-11-02T19:52:30Z</time>
      </trkpt>
      <trkpt lat="48.84634" lon="-0.54909">
        <ele>91</ele>
        <time>2023-11-02T19:53:04Z</time>
      </trkpt>
      <trkpt lat="48.84664" lon="-0.54923">
        <ele>88</ele>
        <time>2023-11-02T19:53:46Z</time>
      </trkpt>
      <trkpt lat="48.8469" lon="-0.54931">
        <ele>85</ele>
        <time>2023-11-02T19:54:22Z</time>
      </trkpt>
      <trkpt lat="48.84703" lon="-0.5493">
        <ele>84</ele>
        <time>2023-11-02T19:54:39Z</time>
      </trkpt>
      <trkpt lat="48.84719" lon="-0.54917">
        <ele>84</ele>
        <time>2023-11-02T19:55:03Z</time>
      </trkpt>
      <trkpt lat="48.84731" lon="-0.54896">
        <ele>84</ele>
        <time>2023-11-02T19:55:28Z</time>
      </trkpt>
      <trkpt lat="48.84734" lon="-0.54883">
        <ele>84</ele>
        <time>2023-11-02T19:55:40Z</time>
      </trkpt>
      <trkpt lat="48.84746" lon="-0.54869">
        <ele>83</ele>
        <time>2023-11-02T19:56:00Z</time>
      </trkpt>
      <trkpt lat="48.84766" lon="-0.54858">
        <ele>82</ele>
        <time>2023-11-02T19:56:28Z</time>
      </trkpt>
      <trkpt lat="48.84775" lon="-0.54857">
        <ele>82</ele>
        <time>2023-11-02T19:56:40Z</time>
      </trkpt>
      <trkpt lat="48.84791" lon="-0.54893">
        <ele>81</ele>
        <time>2023-11-02T19:57:19Z</time>
      </trkpt>
      <trkpt lat="48.848" lon="-0.549">
        <ele>81</ele>
        <time>2023-11-02T19:57:32Z</time>
      </trkpt>
      <trkpt lat="48.84812" lon="-0.54901">
        <ele>80</ele>
        <time>2023-11-02T19:57:48Z</time>
      </trkpt>
      <trkpt lat="48.84832" lon="-0.54917">
        <ele>80</ele>
        <time>2023-11-02T19:58:18Z</time>
      </trkpt>
      <trkpt lat="48.84834" lon="-0.5493">
        <ele>80</ele>
        <time>2023-11-02T19:58:30Z</time>
      </trkpt>
      <trkpt lat="48.84846" lon="-0.54949">
        <ele>80</ele>
        <time>2023-11-02T19:58:53Z</time>
      </trkpt>
      <trkpt lat="48.84865" lon="-0.55007">
        <ele>81</ele>
        <time>2023-11-02T19:59:50Z</time>
      </trkpt>
      <trkpt lat="48.84865" lon="-0.55032">
        <ele>81</ele>
        <time>2023-11-02T20:00:12Z</time>
      </trkpt>
      <trkpt lat="48.84869" lon="-0.55039">
        <ele>81</ele>
        <time>2023-11-02T20:00:20Z</time>
      </trkpt>
      <trkpt lat="48.84879" lon="-0.55031">
        <ele>81</ele>
        <time>2023-11-02T20:00:35Z</time>
      </trkpt>
      <trkpt lat="48.8489" lon="-0.55051">
        <ele>81</ele>
        <time>2023-11-02T20:00:58Z</time>
      </trkpt>
      <trkpt lat="48.8489" lon="-0.55066">
        <ele>81</ele>
        <time>2023-11-02T20:01:11Z</time>
      </trkpt>
      <trkpt lat="48.84879" lon="-0.55083">
        <ele>81</ele>
        <time>2023-11-02T20:01:32Z</time>
      </trkpt>
      <trkpt lat="48.84909" lon="-0.55133">
        <ele>82</ele>
        <time>2023-11-02T20:02:32Z</time>
      </trkpt>
      <trkpt lat="48.84907" lon="-0.55095">
        <ele>81</ele>
        <time>2023-11-02T20:03:05Z</time>
      </trkpt>
      <trkpt lat="48.84919" lon="-0.55066">
        <ele>81</ele>
        <time>2023-11-02T20:03:35Z</time>
      </trkpt>
      <trkpt lat="48.84933" lon="-0.55062">
        <ele>81</ele>
        <time>2023-11-02T20:03:54Z</time>
      </trkpt>
      <trkpt lat="48.84937" lon="-0.55055">
        <ele>80</ele>
        <time>2023-11-02T20:04:02Z</time>
      </trkpt>
      <trkpt lat="48.84947" lon="-0.55052">
        <ele>80</ele>
        <time>2023-11-02T20:04:16Z</time>
      </trkpt>
      <trkpt lat="48.84951" lon="-0.5503">
        <ele>80</ele>
        <time>2023-11-02T20:04:36Z</time>
      </trkpt>
      <trkpt lat="48.85003" lon="-0.54983">
        <ele>79</ele>
        <time>2023-11-02T20:05:57Z</time>
      </trkpt>
      <trkpt lat="48.85006" lon="-0.54975">
        <ele>79</ele>
        <time>2023-11-02T20:06:05Z</time>
      </trkpt>
      <trkpt lat="48.85017" lon="-0.54965">
        <ele>80</ele>
        <time>2023-11-02T20:06:22Z</time>
      </trkpt>
      <trkpt lat="48.85017" lon="-0.54951">
        <ele>80</ele>
        <time>2023-11-02T20:06:34Z</time>
      </trkpt>
      <trkpt lat="48.85023" lon="-0.54941">
        <ele>80</ele>
        <time>2023-11-02T20:06:46Z</time>
      </trkpt>
      <trkpt lat="48.85029" lon="-0.54936">
        <ele>80</ele>
        <time>2023-11-02T20:06:55Z</time>
      </trkpt>
      <trkpt lat="48.85049" lon="-0.54936">
        <ele>81</ele>
        <time>2023-11-02T20:07:22Z</time>
      </trkpt>
      <trkpt lat="48.8507" lon="-0.54903">
        <ele>82</ele>
        <time>2023-11-02T20:08:02Z</time>
      </trkpt>
      <trkpt lat="48.85107" lon="-0.5488">
        <ele>85</ele>
        <time>2023-11-02T20:08:56Z</time>
      </trkpt>
      <trkpt lat="48.85114" lon="-0.54852">
        <ele>86</ele>
        <time>2023-11-02T20:09:22Z</time>
      </trkpt>
      <trkpt lat="48.85132" lon="-0.54841">
        <ele>87</ele>
        <time>2023-11-02T20:09:48Z</time>
      </trkpt>
      <trkpt lat="48.85146" lon="-0.54817">
        <ele>89</ele>
        <time>2023-11-02T20:10:16Z</time>
      </trkpt>
      <trkpt lat="48.85165" lon="-0.54798">
        <ele>91</ele>
        <time>2023-11-02T20:10:46Z</time>
      </trkpt>
      <trkpt lat="48.85181" lon="-0.54768">
        <ele>93</ele>
        <time>2023-11-02T20:11:20Z</time>
      </trkpt>
      <trkpt lat="48.85197" lon="-0.54749">
        <ele>94</ele>
        <time>2023-11-02T20:11:47Z</time>
      </trkpt>
      <trkpt lat="48.85203" lon="-0.54747">
        <ele>94</ele>
        <time>2023-11-02T20:11:55Z</time>
      </trkpt>
      <trkpt lat="48.85203" lon="-0.5475">
        <ele>94</ele>
        <time>2023-11-02T20:11:58Z</time>
      </trkpt>
    </trkseg>
  </trk>
</gpx>